Last 24 Hour KALB Observations

Last 24 hours of surface weather observations from the Albany County Airport. Observations taken by the National Weather Service.


		
KALB 161551Z 28013G20KT 10SM SCT032 BKN038 BKN100 11/03 A3006 RMK AO2 SLP181
 T01110033=
KALB 161651Z 27012KT 10SM SCT038 SCT100 BKN260 11/03 A3007 RMK AO2 SLP183
 T01060028=
KALB 161751Z 28016KT 10SM FEW024 SCT032 BKN240 BKN260 11/03 A3005 RMK AO2
 SLP175 T01060028 10122 20083 58002=
KALB 161851Z 28017G21KT 10SM FEW024 SCT039 SCT240 BKN260 11/03 A3005 RMK AO2
 SLP177 T01110028=
KALB 161951Z 28016KT 10SM FEW024 SCT039 BKN240 12/02 A3007 RMK AO2 SLP182
 T01170017=
KALB 162051Z 30018G27KT 10SM BKN050 BKN240 12/00 A3009 RMK AO2 PK WND
 31027/2046 SLP188 T01170000 53013=
KALB 162151Z 30011G20KT 10SM FEW032 BKN055 10/M02 A3011 RMK AO2 SLP195
 T01001017=
KALB 162251Z 29010KT 10SM FEW038 SCT060 09/M01 A3013 RMK AO2 SLP206 T00891011=
KALB 162351Z 30007KT 10SM SCT065 08/01 A3017 RMK AO2 SLP218 SCT V FEW T00780011
 10122 20078 53029=
KALB 170051Z 34006KT 10SM FEW055 06/02 A3020 RMK AO2 SLP227 T00610017=
KALB 170151Z 33008KT 10SM FEW050 SCT060 06/00 A3022 RMK AO2 SLP234 T00610000=
KALB 170251Z 00000KT 10SM FEW060 06/00 A3022 RMK AO2 SLP236 T00560000 51017=
KALB 170351Z 00000KT 10SM FEW060 04/00 A3022 RMK AO2 SLP236 T00440000=
KALB 170451Z 03003KT 10SM CLR 04/01 A3023 RMK AO2 SLP238 T00390006 401560039=
KALB 170551Z 00000KT 10SM CLR 03/00 A3025 RMK AO2 SLP245 T00280000 10078 20028
 53009=
KALB 170651Z 33004KT 10SM CLR 03/M01 A3026 RMK AO2 SLP247 T00281006=
KALB 170751Z 00000KT 10SM CLR 03/M01 A3026 RMK AO2 SLP249 T00281006=
KALB 170851Z 00000KT 10SM CLR 02/M01 A3029 RMK AO2 SLP260 T00221011 53014=
KALB 170951Z 00000KT 10SM CLR 02/M02 A3031 RMK AO2 SLP266 T00171017=
KALB 171051Z 00000KT 10SM CLR 01/M01 A3032 RMK AO2 SLP271 T00111011=
KALB 171151Z 00000KT 10SM BCFG CLR 01/M01 A3034 RMK AO2 SLP277 BCFG N AND E
 T00061011 10033 21006 52016=
KALB 171251Z 00000KT 10SM FEW010 03/00 A3035 RMK AO2 SLP281 T00330000=
KALB 171351Z 00000KT 10SM CLR 06/M01 A3034 RMK AO2 SLP277 T00611006=
KALB 171451Z 00000KT 10SM FEW250 08/00 A3034 RMK AO2 SLP274 T00830000 58002=
KALB 171551Z 00000KT 10SM FEW250 09/M01 A3032 RMK AO2 SLP269 T00941006=